Time;durP1;ratioP1;P1;durP2;ratioP2;P2;SDS_P1;SDS_P2;PMS_P1;PMS_P2;Temp;Humidity;BMP_temperature;BMP_pressure;BME280_temperature;BME280_humidity;BME280_pressure;Samples;Min_cycle;Max_cycle;Signal;HPM_P1;HPM_P2
2022/04/09 04:02:23;;;;;;;10.77;8.20;;;0.60;96.30;;;;;;5077452;23;20883;-68
2022/04/09 04:04:48;;;;;;;12.17;8.80;;;0.60;96.30;;;;;;4981937;28;20426;-68
2022/04/09 04:07:14;;;;;;;12.23;7.97;;;0.50;96.30;;;;;;4973308;28;20413;-69
2022/04/09 04:09:39;;;;;;;9.47;8.00;;;0.50;96.30;;;;;;4972857;28;20577;-68
2022/04/09 04:12:05;;;;;;;10.10;8.00;;;0.50;96.30;;;;;;4973133;28;20642;-68
2022/04/09 04:14:32;;;;;;;10.23;7.70;;;0.50;96.30;;;;;;4979531;28;20188;-71
2022/04/09 04:16:58;;;;;;;10.63;7.00;;;0.50;96.30;;;;;;4983313;28;20776;-71
2022/04/09 04:19:23;;;;;;;10.93;7.97;;;0.60;96.30;;;;;;4964902;28;20414;-71
2022/04/09 04:21:48;;;;;;;8.90;8.00;;;0.60;96.30;;;;;;4975924;28;20260;-72
2022/04/09 04:24:14;;;;;;;10.33;7.93;;;0.60;96.30;;;;;;4972105;28;20174;-71
2022/04/09 04:26:39;;;;;;;8.77;7.87;;;0.60;96.30;;;;;;4971486;28;20689;-71
2022/04/09 04:29:05;;;;;;;9.67;8.50;;;0.60;96.30;;;;;;4971677;28;20174;-71
2022/04/09 05:05:10;;;;;;;10.30;8.00;;;0.70;96.30;;;;;;4986341;23;20489;-70
2022/04/09 05:07:44;;;;;;;12.50;8.90;;;0.70;96.30;;;;;;4971778;28;20417;-72
2022/04/09 05:10:12;;;;;;;15.37;10.10;;;0.80;96.30;;;;;;4972749;28;20190;-70
2022/04/09 05:12:37;;;;;;;9.83;8.83;;;0.80;96.30;;;;;;4971875;28;20418;-71
2022/04/09 05:15:04;;;;;;;11.13;8.50;;;0.80;96.30;;;;;;4972524;28;20421;-70
2022/04/09 05:17:29;;;;;;;10.73;9.40;;;0.80;96.30;;;;;;4955182;28;20260;-71
2022/04/09 05:19:55;;;;;;;10.40;8.83;;;0.80;96.30;;;;;;4974874;28;20501;-71
2022/04/09 05:22:20;;;;;;;11.30;8.57;;;0.80;96.30;;;;;;4971990;28;20670;-70
2022/04/09 05:24:46;;;;;;;10.37;9.10;;;0.80;96.30;;;;;;4972327;28;20174;-71
2022/04/09 05:27:11;;;;;;;14.87;10.07;;;0.80;96.30;;;;;;4972294;28;20869;-71
2022/04/09 05:29:37;;;;;;;12.33;8.30;;;0.90;96.30;;;;;;4973918;28;20261;-71
2022/04/09 05:32:04;;;;;;;16.13;8.73;;;0.90;96.30;;;;;;4975751;28;20326;-71
2022/04/09 05:34:29;;;;;;;11.20;9.40;;;0.90;96.30;;;;;;4975817;28;20561;-71
2022/04/09 05:36:55;;;;;;;11.30;9.00;;;1.00;96.30;;;;;;4975599;28;20460;-71
2022/04/09 05:39:20;;;;;;;8.73;7.80;;;1.10;96.30;;;;;;4975010;28;20536;-71
2022/04/09 05:41:46;;;;;;;9.97;8.87;;;1.10;96.30;;;;;;4975469;28;20267;-70
2022/04/09 05:44:11;;;;;;;9.90;8.70;;;1.10;96.30;;;;;;4975411;28;20175;-72
2022/04/09 05:46:37;;;;;;;12.87;8.67;;;1.10;96.30;;;;;;4975214;28;20744;-71
2022/04/09 05:49:03;;;;;;;13.10;8.67;;;1.10;96.30;;;;;;4974823;28;20277;-71
2022/04/09 05:51:29;;;;;;;16.10;9.40;;;1.20;96.30;;;;;;4975218;28;20190;-72
2022/04/09 05:53:55;;;;;;;12.97;9.67;;;1.40;96.30;;;;;;4975342;28;20170;-72
2022/04/09 05:56:21;;;;;;;12.97;10.17;;;2.00;96.30;;;;;;4975347;28;20420;-73
2022/04/09 05:58:47;;;;;;;13.10;8.60;;;2.80;96.30;;;;;;4974700;28;20261;-72
2022/04/09 06:01:12;;;;;;;9.63;8.10;;;2.60;96.30;;;;;;4975237;28;20544;-72
2022/04/09 06:03:38;;;;;;;9.70;6.90;;;2.40;96.30;;;;;;4974809;28;20203;-73
2022/04/09 06:06:04;;;;;;;8.03;6.97;;;2.10;96.30;;;;;;4975256;28;20181;-72
2022/04/09 06:08:31;;;;;;;8.13;6.37;;;2.10;96.30;;;;;;4974586;28;20653;-72
2022/04/09 06:10:57;;;;;;;9.07;7.47;;;2.00;96.30;;;;;;4974597;28;20686;-72
2022/04/09 06:13:22;;;;;;;9.50;6.77;;;2.00;96.30;;;;;;4974987;28;20445;-72
2022/04/09 06:15:47;;;;;;;10.33;7.57;;;2.00;96.30;;;;;;4975038;28;20192;-74
2022/04/09 06:18:14;;;;;;;8.43;6.30;;;1.90;96.30;;;;;;4956930;28;20241;-73
2022/04/09 06:20:40;;;;;;;7.00;6.27;;;1.90;96.30;;;;;;4974943;28;20194;-73
2022/04/09 06:23:06;;;;;;;7.87;5.47;;;2.00;96.30;;;;;;4974562;28;20489;-74
2022/04/09 06:25:32;;;;;;;6.80;5.87;;;2.00;96.30;;;;;;4974478;28;20592;-73
2022/04/09 06:27:57;;;;;;;8.50;5.67;;;2.00;96.30;;;;;;4974169;28;20420;-73
2022/04/09 06:30:23;;;;;;;12.60;5.47;;;1.90;96.30;;;;;;4974625;28;20182;-73
2022/04/09 06:32:48;;;;;;;8.03;5.50;;;1.80;96.30;;;;;;4974666;28;20182;-73
2022/04/09 06:35:14;;;;;;;7.80;5.47;;;1.80;96.30;;;;;;4974308;28;20229;-74
2022/04/09 06:37:40;;;;;;;7.30;5.20;;;1.80;96.30;;;;;;4973916;28;20198;-74
2022/04/09 06:40:07;;;;;;;7.93;5.67;;;1.70;96.30;;;;;;4974254;28;20170;-74
2022/04/09 06:42:33;;;;;;;6.63;4.97;;;1.70;96.30;;;;;;4974154;28;20717;-74
2022/04/09 06:45:00;;;;;;;5.73;4.20;;;1.70;96.30;;;;;;4974484;28;20444;-74
2022/04/09 06:47:25;;;;;;;8.60;4.87;;;1.70;96.30;;;;;;4967889;28;20195;-76
2022/04/09 06:49:51;;;;;;;10.03;4.20;;;1.80;96.30;;;;;;4974225;28;20410;-74
2022/04/09 06:52:16;;;;;;;7.80;4.77;;;1.80;96.30;;;;;;4973882;28;20198;-75
2022/04/09 06:54:42;;;;;;;7.93;4.00;;;1.90;96.30;;;;;;4972943;28;20202;-75
2022/04/09 06:57:07;;;;;;;6.80;4.63;;;1.80;96.30;;;;;;4962614;28;20202;-74
2022/04/09 06:59:33;;;;;;;11.30;3.77;;;1.90;96.30;;;;;;4947016;28;20222;-74
2022/04/09 07:01:58;;;;;;;7.33;3.50;;;1.90;96.30;;;;;;4968603;28;20194;-76
2022/04/09 07:04:24;;;;;;;7.37;3.70;;;1.90;96.30;;;;;;4974015;28;20261;-77
2022/04/09 07:06:50;;;;;;;10.50;4.30;;;2.00;96.30;;;;;;4965351;28;20183;-76
2022/04/09 07:09:15;;;;;;;4.53;3.50;;;2.00;96.30;;;;;;4954443;29;20246;-76
2022/04/09 07:11:41;;;;;;;10.47;4.43;;;2.00;96.30;;;;;;4957546;28;20205;-75
2022/04/09 07:14:06;;;;;;;7.17;3.90;;;2.10;96.30;;;;;;4972364;28;20197;-73
2022/04/09 07:16:32;;;;;;;4.73;3.37;;;2.00;96.30;;;;;;4974155;28;20202;-76
2022/04/09 07:18:57;;;;;;;5.40;3.43;;;2.10;96.30;;;;;;4973696;28;20178;-73
2022/04/09 07:21:23;;;;;;;7.60;3.23;;;2.10;96.30;;;;;;4974130;28;20186;-73
2022/04/09 07:23:48;;;;;;;5.67;3.30;;;2.10;96.30;;;;;;4974267;28;20225;-77
2022/04/09 07:26:16;;;;;;;9.77;3.30;;;2.30;96.30;;;;;;4974112;28;20210;-74
2022/04/09 07:28:41;;;;;;;6.57;3.97;;;2.30;96.30;;;;;;4973510;28;20229;-74
2022/04/09 07:31:06;;;;;;;5.07;2.90;;;2.40;96.30;;;;;;4973985;28;20810;-77
2022/04/09 07:33:32;;;;;;;6.80;3.60;;;2.40;96.30;;;;;;4974046;28;20194;-74
2022/04/09 07:35:57;;;;;;;7.83;3.43;;;2.50;96.30;;;;;;4973904;28;20190;-74
2022/04/09 07:38:23;;;;;;;7.23;3.20;;;2.60;96.30;;;;;;4956014;28;20249;-76
2022/04/09 07:40:48;;;;;;;6.90;3.37;;;2.70;96.30;;;;;;4973807;28;20202;-75
2022/04/09 07:43:14;;;;;;;13.30;3.37;;;2.70;96.30;;;;;;4973703;28;20567;-74
2022/04/09 07:45:39;;;;;;;7.80;2.73;;;2.60;96.30;;;;;;4973857;28;20261;-74
2022/04/09 07:48:06;;;;;;;6.90;2.70;;;2.60;96.30;;;;;;4973204;28;20178;-73
2022/04/09 07:50:33;;;;;;;3.83;2.73;;;2.60;96.30;;;;;;4973461;28;20202;-75
2022/04/09 07:52:59;;;;;;;4.87;2.50;;;2.60;96.30;;;;;;4973398;28;20465;-74
2022/04/09 07:55:24;;;;;;;3.33;2.50;;;2.70;96.30;;;;;;4973801;28;20916;-74
2022/04/09 07:57:56;;;;;;;3.60;2.70;;;2.70;96.30;;;;;;4964930;28;20239;-74
2022/04/09 08:00:23;;;;;;;3.63;2.60;;;2.80;96.30;;;;;;4963187;28;20189;-74
2022/04/09 08:02:49;;;;;;;6.60;2.50;;;2.80;96.30;;;;;;4963134;28;20464;-76
2022/04/09 08:05:18;;;;;;;6.53;2.63;;;2.90;96.30;;;;;;4972097;28;20417;-76
2022/04/09 08:07:44;;;;;;;6.73;2.93;;;2.80;96.30;;;;;;4978748;28;20178;-76
2022/04/09 08:10:13;;;;;;;4.33;2.33;;;2.90;96.30;;;;;;4982081;28;20522;-76
2022/04/09 08:12:41;;;;;;;6.80;2.60;;;3.00;96.30;;;;;;4991229;28;20962;-75
2022/04/09 08:15:08;;;;;;;9.30;3.20;;;3.20;96.30;;;;;;4970010;28;20418;-76
2022/04/09 08:17:35;;;;;;;4.10;2.60;;;3.30;96.30;;;;;;4954168;28;20540;-75
2022/04/09 08:20:01;;;;;;;4.80;2.67;;;3.50;96.30;;;;;;4969116;28;20480;-75
2022/04/09 08:22:27;;;;;;;6.00;2.83;;;3.60;96.30;;;;;;4974580;28;20467;-75
2022/04/09 08:24:53;;;;;;;4.77;2.30;;;3.70;96.30;;;;;;4982930;28;20669;-77
2022/04/09 08:27:18;;;;;;;5.67;2.50;;;4.00;96.30;;;;;;4955771;28;20414;-78
2022/04/09 08:29:44;;;;;;;4.87;2.47;;;4.50;96.30;;;;;;4985910;28;20602;-77
2022/04/09 08:32:09;;;;;;;5.80;2.73;;;5.00;96.30;;;;;;4992453;28;20189;-78
2022/04/09 08:34:38;;;;;;;5.10;2.80;;;4.80;96.30;;;;;;4973561;28;20668;-78
2022/04/09 08:37:06;;;;;;;10.27;4.87;;;5.40;96.30;;;;;;4955764;28;20742;-78
2022/04/09 08:39:32;;;;;;;2.80;2.17;;;6.00;96.30;;;;;;4979693;28;20766;-78
2022/04/09 08:41:58;;;;;;;6.87;2.40;;;5.70;96.30;;;;;;4979338;28;20447;-78
2022/04/09 08:44:24;;;;;;;6.37;2.43;;;5.40;96.30;;;;;;4992109;28;20416;-78
2022/04/09 08:46:51;;;;;;;5.63;1.87;;;5.60;96.30;;;;;;4975144;28;20416;-79
2022/04/09 08:49:16;;;;;;;3.53;1.50;;;6.00;96.30;;;;;;4989864;28;20420;-78
2022/04/09 08:51:42;;;;;;;4.23;1.80;;;5.80;96.30;;;;;;4970938;28;20455;-78
2022/04/09 08:54:08;;;;;;;3.37;1.27;;;5.70;96.30;;;;;;4958903;28;20198;-78
2022/04/09 08:56:34;;;;;;;3.90;1.13;;;5.90;96.30;;;;;;4974854;28;20662;-78
2022/04/09 08:59:00;;;;;;;4.17;1.90;;;6.10;96.30;;;;;;4974250;28;20459;-78
2022/04/09 09:01:26;;;;;;;5.63;2.10;;;6.20;96.30;;;;;;4974569;28;20914;-78
2022/04/09 09:03:53;;;;;;;3.57;1.50;;;6.00;96.30;;;;;;4977709;28;20861;-77
2022/04/09 09:06:34;;;;;;;4.60;1.73;;;6.50;96.30;;;;;;4988877;28;20422;-78
2022/04/09 09:09:03;;;;;;;3.33;1.40;;;6.60;96.30;;;;;;4983399;28;20480;-78
2022/04/09 09:11:42;;;;;;;4.20;1.33;;;6.70;96.30;;;;;;4944239;28;20448;-77
2022/04/09 09:14:09;;;;;;;3.17;1.70;;;6.10;96.30;;;;;;4967688;28;20475;-80
2022/04/09 09:16:34;;;;;;;7.50;1.63;;;5.40;96.30;;;;;;4977094;28;20496;-77
2022/04/09 09:19:04;;;;;;;5.30;1.30;;;4.80;96.30;;;;;;4959430;28;20505;-78
2022/04/09 09:21:30;;;;;;;5.93;1.47;;;4.00;96.30;;;;;;4977830;28;20226;-79
2022/04/09 09:24:15;;;;;;;4.03;1.40;;;3.80;96.30;;;;;;4988080;28;20421;-79
2022/04/09 09:26:41;;;;;;;1.83;1.00;;;3.70;96.30;;;;;;4978340;28;20519;-77
2022/04/09 09:29:08;;;;;;;2.83;1.30;;;5.00;96.30;;;;;;4976769;28;20432;-78
2022/04/09 09:31:41;;;;;;;3.03;1.10;;;6.90;96.30;;;;;;4959748;28;20237;-78
2022/04/09 09:34:12;;;;;;;2.83;1.60;;;7.20;96.30;;;;;;4958598;28;20513;-78
2022/04/09 09:36:40;;;;;;;2.17;1.20;;;8.00;96.30;;;;;;4958895;28;20563;-78
2022/04/09 09:39:07;;;;;;;4.57;1.43;;;8.60;96.30;;;;;;4958555;28;20422;-78
2022/04/09 09:41:33;;;;;;;5.73;1.43;;;7.30;96.30;;;;;;4958871;28;20492;-78
2022/04/09 09:44:07;;;;;;;3.40;1.50;;;6.80;96.30;;;;;;4984316;28;20418;-78
2022/04/09 09:46:33;;;;;;;4.07;1.20;;;7.10;96.30;;;;;;4958359;28;20456;-78
2022/04/09 09:48:59;;;;;;;4.60;1.50;;;8.50;96.30;;;;;;4975180;28;20433;-78
2022/04/09 09:51:25;;;;;;;6.53;1.60;;;9.30;96.30;;;;;;4958496;28;20476;-78
2022/04/09 09:54:07;;;;;;;3.60;1.33;;;9.50;96.30;;;;;;4974371;28;20186;-79
2022/04/09 09:56:43;;;;;;;2.50;1.40;;;8.60;96.30;;;;;;4956278;29;20438;-78
2022/04/09 09:59:11;;;;;;;4.30;1.10;;;7.80;96.30;;;;;;4939633;28;20918;-79
2022/04/09 10:01:38;;;;;;;2.37;1.40;;;6.70;96.30;;;;;;4974213;28;20961;-79
2022/04/09 10:04:05;;;;;;;4.87;1.10;;;6.20;96.30;;;;;;4976028;28;20433;-79
2022/04/09 10:06:33;;;;;;;5.10;1.77;;;7.50;96.30;;;;;;4958041;28;20430;-78
2022/04/09 10:08:59;;;;;;;2.47;1.67;;;8.30;96.30;;;;;;4957649;28;20464;-78
2022/04/09 10:11:27;;;;;;;4.20;1.63;;;8.00;96.30;;;;;;4975368;28;20520;-78
2022/04/09 10:13:55;;;;;;;3.30;1.30;;;7.80;96.30;;;;;;4975061;28;20425;-78
2022/04/09 10:16:22;;;;;;;2.97;1.63;;;7.70;96.30;;;;;;4960088;28;20938;-80
2022/04/09 10:18:49;;;;;;;2.33;1.30;;;6.70;96.30;;;;;;4956250;28;20422;-79
2022/04/09 10:21:16;;;;;;;3.93;1.50;;;6.40;96.30;;;;;;4939106;29;20446;-79
2022/04/09 10:23:43;;;;;;;7.13;1.67;;;5.90;96.30;;;;;;4956849;28;20453;-79
2022/04/09 10:26:10;;;;;;;3.17;1.43;;;6.10;96.30;;;;;;4956705;29;20500;-79
2022/04/09 10:28:38;;;;;;;1.40;0.90;;;5.70;96.30;;;;;;4938701;29;20427;-79
2022/04/09 10:31:28;;;;;;;6.80;1.90;;;5.30;96.30;;;;;;4956140;28;20446;-80
2022/04/09 10:33:55;;;;;;;5.47;1.90;;;5.10;96.30;;;;;;4939136;29;20429;-77
2022/04/09 10:36:54;;;;;;;2.77;1.20;;;5.00;96.30;;;;;;4956258;29;20625;-79
2022/04/09 10:39:40;;;;;;;3.53;1.87;;;5.20;96.30;;;;;;4917925;28;20421;-76
2022/04/09 10:42:07;;;;;;;22.17;12.23;;;5.10;96.30;;;;;;4974841;28;20929;-75
2022/04/09 10:44:48;;;;;;;11.60;6.63;;;5.30;96.30;;;;;;4982754;28;20432;-75
2022/04/09 10:47:15;;;;;;;4.77;1.67;;;4.80;96.30;;;;;;4985895;28;20425;-76
2022/04/09 10:50:16;;;;;;;1.70;1.17;;;4.20;96.30;;;;;;4967345;28;20418;-75
2022/04/09 10:52:47;;;;;;;1.77;1.33;;;3.70;96.30;;;;;;4893468;29;20776;-78
2022/04/09 10:55:12;;;;;;;3.60;3.30;;;2.80;96.30;;;;;;4960842;28;20422;-76
2022/04/09 10:57:45;;;;;;;3.43;1.13;;;3.00;96.30;;;;;;4973875;28;20508;-73
2022/04/09 11:00:31;;;;;;;2.60;1.23;;;3.90;96.30;;;;;;4974632;28;20174;-72
2022/04/09 11:03:30;;;;;;;1.90;1.00;;;4.50;96.30;;;;;;4973079;28;20425;-76
2022/04/09 11:06:40;;;;;;;5.23;2.70;;;4.80;96.30;;;;;;4973982;28;20511;-76
2022/04/09 11:09:06;;;;;;;3.13;1.00;;;4.90;96.30;;;;;;4974094;28;20444;-77
2022/04/09 11:11:31;;;;;;;8.83;1.50;;;4.50;96.30;;;;;;4974339;28;20508;-76
2022/04/09 11:13:57;;;;;;;4.10;1.30;;;4.20;96.30;;;;;;4974651;28;20836;-77
2022/04/09 11:16:22;;;;;;;2.23;1.40;;;4.50;96.30;;;;;;4956821;28;20171;-77
2022/04/09 11:18:49;;;;;;;3.90;1.33;;;4.80;96.30;;;;;;4975231;28;20608;-74
2022/04/09 11:24:04;;;;;;;3.53;1.40;;;5.40;96.30;;;;;;5168618;23;20546;-75
2022/04/09 11:26:30;;;;;;;2.13;1.50;;;5.40;96.30;;;;;;4975094;28;20504;-75
2022/04/09 11:28:55;;;;;;;2.80;1.40;;;5.80;96.30;;;;;;4993275;28;20512;-75
2022/04/09 11:31:22;;;;;;;4.20;1.40;;;7.00;96.30;;;;;;4986346;28;20198;-75
2022/04/09 11:33:57;;;;;;;2.53;1.23;;;7.90;96.30;;;;;;4993781;28;20680;-77
2022/04/09 11:36:23;;;;;;;3.50;1.70;;;8.20;96.30;;;;;;4993522;28;20943;-74
2022/04/09 11:38:48;;;;;;;1.77;1.40;;;8.60;96.30;;;;;;4985960;28;20417;-73
2022/04/09 11:41:20;;;;;;;3.20;1.57;;;9.00;96.30;;;;;;4995175;28;20240;-74
2022/04/09 11:43:46;;;;;;;1.57;1.20;;;8.80;96.30;;;;;;4993370;28;20516;-76
2022/04/09 11:46:12;;;;;;;6.20;1.37;;;7.50;96.30;;;;;;4993251;28;20411;-75
2022/04/09 11:48:37;;;;;;;3.30;1.30;;;7.00;96.30;;;;;;4993101;28;20921;-73
2022/04/09 11:51:03;;;;;;;2.10;1.10;;;6.90;96.30;;;;;;4975843;28;20288;-73
2022/04/09 11:53:28;;;;;;;2.13;1.30;;;6.30;96.30;;;;;;4993134;28;20173;-72
2022/04/09 11:55:59;;;;;;;1.80;1.00;;;6.20;96.30;;;;;;4987948;28;20178;-75
2022/04/09 11:58:33;;;;;;;5.87;1.77;;;6.10;96.30;;;;;;4968530;28;20206;-72
2022/04/09 12:00:58;;;;;;;2.43;1.40;;;6.10;96.30;;;;;;4986922;28;20437;-72
2022/04/09 12:03:25;;;;;;;3.47;1.23;;;5.90;96.30;;;;;;4995802;28;20563;-71
2022/04/09 12:05:51;;;;;;;1.90;1.20;;;5.70;96.30;;;;;;4990975;28;20179;-75
2022/04/09 12:08:18;;;;;;;2.87;1.30;;;5.00;96.30;;;;;;4973457;28;20505;-75
2022/04/09 12:10:55;;;;;;;2.00;0.90;;;4.20;96.30;;;;;;4977300;28;20433;-71
2022/04/09 12:13:29;;;;;;;2.27;1.00;;;3.90;96.30;;;;;;4975362;28;20416;-76
2022/04/09 12:16:14;;;;;;;1.60;1.10;;;3.90;96.30;;;;;;4993158;28;20409;-73
2022/04/09 12:18:40;;;;;;;1.30;0.73;;;3.50;96.30;;;;;;4992171;28;20826;-73
2022/04/09 12:21:21;;;;;;;1.53;1.00;;;3.50;96.30;;;;;;4975597;28;20459;-73
2022/04/09 12:24:00;;;;;;;1.13;0.70;;;3.70;96.30;;;;;;4992817;28;20428;-76
2022/04/09 12:26:26;;;;;;;2.07;0.80;;;4.10;96.30;;;;;;4992880;28;20423;-73
2022/04/09 12:29:22;;;;;;;1.30;0.70;;;5.40;96.30;;;;;;4978622;28;20528;-73
2022/04/09 12:31:51;;;;;;;1.03;0.90;;;6.30;96.30;;;;;;4988964;28;20465;-73
2022/04/09 12:34:20;;;;;;;3.53;1.03;;;7.00;96.30;;;;;;4975522;28;20429;-72
2022/04/09 12:37:05;;;;;;;6.43;1.33;;;7.20;96.30;;;;;;4992894;28;20806;-75
2022/04/09 12:39:33;;;;;;;1.77;1.20;;;7.30;96.30;;;;;;4996596;28;20408;-73
2022/04/09 12:41:59;;;;;;;2.13;1.17;;;7.80;96.30;;;;;;4996342;28;20436;-73
2022/04/09 12:44:32;;;;;;;1.57;0.97;;;7.70;96.30;;;;;;4996642;28;20404;-72
2022/04/09 12:46:58;;;;;;;2.27;1.20;;;7.90;96.30;;;;;;4996446;28;20397;-74
2022/04/09 12:49:38;;;;;;;2.33;1.30;;;8.30;96.30;;;;;;4996296;28;20416;-74
2022/04/09 12:52:06;;;;;;;2.83;1.13;;;8.70;96.30;;;;;;4995757;28;20511;-72
2022/04/09 12:54:32;;;;;;;4.47;1.23;;;9.40;96.30;;;;;;4976925;28;20413;-75
2022/04/09 12:57:05;;;;;;;3.70;1.27;;;9.60;96.30;;;;;;4981180;28;20551;-72
2022/04/09 12:59:36;;;;;;;1.57;1.20;;;9.00;96.30;;;;;;4983713;28;20174;-73
2022/04/09 13:02:03;;;;;;;1.40;1.03;;;8.40;96.30;;;;;;4966759;28;20925;-72
2022/04/09 13:04:29;;;;;;;1.60;1.30;;;7.60;96.30;;;;;;5003684;28;20435;-74
2022/04/09 13:06:55;;;;;;;1.67;0.90;;;6.90;96.30;;;;;;5002325;28;20424;-74
2022/04/09 13:09:20;;;;;;;2.27;1.20;;;6.80;96.30;;;;;;5003225;28;20872;-73
2022/04/09 13:11:46;;;;;;;1.20;0.70;;;6.50;96.30;;;;;;5016066;28;20193;-72
2022/04/09 13:14:11;;;;;;;2.13;0.80;;;5.70;96.30;;;;;;5015447;28;20260;-74
2022/04/09 13:16:37;;;;;;;1.90;0.90;;;5.80;96.30;;;;;;5014477;28;20547;-76
2022/04/09 13:19:02;;;;;;;2.30;0.70;;;6.60;96.30;;;;;;5015421;28;20175;-73
2022/04/09 13:21:28;;;;;;;4.03;0.90;;;6.90;96.30;;;;;;4997949;28;20231;-74
2022/04/09 13:23:54;;;;;;;1.60;0.70;;;7.40;96.30;;;;;;4997664;28;20551;-74
2022/04/09 13:26:20;;;;;;;1.67;0.80;;;7.90;96.30;;;;;;4996407;28;20478;-73
2022/04/09 13:28:45;;;;;;;3.33;0.77;;;8.10;96.30;;;;;;5015382;28;20173;-75
2022/04/09 13:31:11;;;;;;;1.07;0.63;;;8.20;96.30;;;;;;4997728;28;20284;-73
2022/04/09 13:33:36;;;;;;;1.07;0.80;;;8.40;96.30;;;;;;5015351;28;20219;-73
2022/04/09 13:36:02;;;;;;;3.53;0.90;;;8.40;96.30;;;;;;5015165;28;20249;-75
2022/04/09 13:38:27;;;;;;;1.47;0.80;;;8.40;96.30;;;;;;5015041;28;20580;-73
2022/04/09 13:40:53;;;;;;;1.47;0.90;;;8.50;96.30;;;;;;5015023;28;20193;-73
2022/04/09 13:43:18;;;;;;;1.20;0.80;;;8.40;96.30;;;;;;5015085;28;20235;-74
2022/04/09 13:45:44;;;;;;;1.10;0.70;;;8.00;96.30;;;;;;4997508;28;20165;-75
2022/04/09 13:48:09;;;;;;;1.37;0.90;;;8.00;96.30;;;;;;5014720;28;20216;-75
2022/04/09 13:50:36;;;;;;;1.70;0.80;;;7.30;96.30;;;;;;5013970;28;20201;-73
2022/04/09 13:53:01;;;;;;;2.00;0.80;;;7.00;96.30;;;;;;5013236;28;20262;-73
2022/04/09 13:55:27;;;;;;;3.10;1.10;;;7.50;96.30;;;;;;4995428;28;20477;-73
2022/04/09 13:57:53;;;;;;;2.40;0.90;;;7.60;96.30;;;;;;4977705;28;20209;-73
2022/04/09 14:00:19;;;;;;;1.53;0.93;;;7.50;96.30;;;;;;4977679;28;20185;-73
2022/04/09 14:02:45;;;;;;;2.00;1.13;;;7.70;96.30;;;;;;4995090;28;20228;-72
2022/04/09 14:05:10;;;;;;;1.40;0.90;;;8.00;96.30;;;;;;4995410;28;20437;-72
2022/04/09 14:07:36;;;;;;;2.90;1.10;;;8.00;96.30;;;;;;4994942;28;20656;-73
2022/04/09 14:10:04;;;;;;;1.53;1.00;;;8.30;96.30;;;;;;4994966;28;20693;-73
2022/04/09 14:12:30;;;;;;;2.67;0.93;;;8.30;96.30;;;;;;4994739;28;20543;-72
2022/04/09 14:14:55;;;;;;;1.87;0.90;;;8.10;96.30;;;;;;4994906;28;20420;-73
2022/04/09 14:17:21;;;;;;;1.00;0.80;;;7.90;96.30;;;;;;4994878;28;20201;-75
2022/04/09 14:19:48;;;;;;;1.97;0.90;;;8.30;96.30;;;;;;4994511;28;20660;-73
2022/04/09 14:22:13;;;;;;;1.30;1.10;;;8.20;96.30;;;;;;4977172;28;20491;-75
2022/04/09 14:24:39;;;;;;;1.33;0.90;;;8.50;96.30;;;;;;4994688;28;20173;-72
2022/04/09 14:27:06;;;;;;;1.77;0.90;;;8.00;96.30;;;;;;4994770;28;20185;-72
2022/04/09 14:29:32;;;;;;;1.00;0.90;;;7.50;96.30;;;;;;4994119;28;20177;-75
2022/04/09 14:31:57;;;;;;;1.10;1.00;;;7.70;96.30;;;;;;4976865;28;20436;-74
2022/04/09 14:34:23;;;;;;;1.63;0.90;;;7.40;96.30;;;;;;4994506;28;20268;-73
2022/04/09 14:36:48;;;;;;;1.90;1.10;;;7.40;96.30;;;;;;4994305;28;20181;-74
2022/04/09 14:39:15;;;;;;;1.87;0.90;;;7.70;96.30;;;;;;4980801;28;20265;-76
2022/04/09 14:41:41;;;;;;;1.83;1.10;;;8.40;96.30;;;;;;4974897;28;20182;-73
2022/04/09 14:44:07;;;;;;;3.37;1.10;;;9.00;96.30;;;;;;4975058;28;20469;-75
2022/04/09 14:46:33;;;;;;;2.13;1.10;;;9.30;96.30;;;;;;4974770;28;20166;-73
2022/04/09 14:48:58;;;;;;;2.70;1.40;;;9.00;96.30;;;;;;4974240;28;20484;-73
2022/04/09 14:51:24;;;;;;;3.57;0.73;;;9.20;96.30;;;;;;4974827;28;20674;-73
2022/04/09 14:53:49;;;;;;;1.80;1.10;;;9.40;96.30;;;;;;4957374;28;20638;-73
2022/04/09 14:56:15;;;;;;;1.57;0.80;;;9.20;96.30;;;;;;4956311;28;20540;-72
2022/04/09 14:58:41;;;;;;;2.07;1.20;;;9.10;96.30;;;;;;4974418;28;20206;-72
2022/04/09 15:01:07;;;;;;;4.33;0.90;;;9.10;96.30;;;;;;4974457;28;20249;-72
2022/04/09 15:03:36;;;;;;;1.70;1.10;;;8.70;96.30;;;;;;4974614;28;20410;-75
2022/04/09 15:06:05;;;;;;;1.80;1.10;;;8.00;96.30;;;;;;4974527;28;20449;-72
2022/04/09 15:08:32;;;;;;;1.23;0.90;;;7.60;96.30;;;;;;4974347;28;20409;-73
2022/04/09 15:10:58;;;;;;;2.90;1.20;;;7.40;96.30;;;;;;4956976;28;20450;-73
2022/04/09 15:13:24;;;;;;;2.93;1.00;;;7.50;96.30;;;;;;4974484;28;20761;-73
2022/04/09 15:15:49;;;;;;;2.97;1.47;;;8.20;96.30;;;;;;4974528;28;20237;-73
2022/04/09 15:18:15;;;;;;;2.20;1.00;;;8.10;96.30;;;;;;4973740;28;20453;-72
2022/04/09 15:20:41;;;;;;;4.07;1.17;;;7.40;96.30;;;;;;4957040;28;20234;-72
2022/04/09 15:23:07;;;;;;;1.93;1.20;;;7.10;96.30;;;;;;4974121;28;20667;-72
2022/04/09 15:25:33;;;;;;;2.70;1.10;;;7.50;96.30;;;;;;4974238;28;20254;-73
2022/04/09 15:28:00;;;;;;;2.87;0.90;;;7.40;96.30;;;;;;4973832;28;20204;-72
2022/04/09 15:30:25;;;;;;;1.20;1.10;;;7.70;96.30;;;;;;4974009;28;20476;-73
2022/04/09 15:32:51;;;;;;;1.67;0.80;;;8.00;96.30;;;;;;4957085;28;20430;-72
2022/04/09 15:35:16;;;;;;;1.80;1.03;;;8.40;96.30;;;;;;4973828;28;20178;-73
2022/04/09 15:37:42;;;;;;;1.50;1.00;;;8.70;96.30;;;;;;4973393;28;20205;-74
2022/04/09 15:40:08;;;;;;;4.33;1.10;;;9.20;96.30;;;;;;4956615;28;20181;-73
2022/04/09 15:42:33;;;;;;;3.27;1.50;;;8.90;96.30;;;;;;4976538;28;20201;-73
2022/04/09 15:45:00;;;;;;;3.87;1.13;;;8.30;96.30;;;;;;4975874;28;20175;-73
2022/04/09 15:47:25;;;;;;;1.83;1.07;;;8.10;96.30;;;;;;4983487;28;20172;-80
2022/04/09 15:49:51;;;;;;;3.67;1.60;;;7.70;96.30;;;;;;4974008;28;20421;-76
2022/04/09 15:52:16;;;;;;;1.50;1.10;;;7.30;96.30;;;;;;4981960;28;20217;-75
2022/04/09 15:54:43;;;;;;;4.97;1.10;;;6.70;96.30;;;;;;4985375;28;20178;-77
2022/04/09 15:57:12;;;;;;;1.70;1.10;;;6.50;96.30;;;;;;4983127;28;20233;-78
2022/04/09 15:59:38;;;;;;;1.50;0.90;;;5.70;96.30;;;;;;4977842;28;20426;-78
2022/04/09 16:02:06;;;;;;;2.70;1.40;;;4.40;96.30;;;;;;4988105;28;20482;-76
2022/04/09 16:04:32;;;;;;;1.50;0.77;;;3.70;96.30;;;;;;4972448;28;20920;-76
2022/04/09 16:06:59;;;;;;;0.90;0.80;;;3.30;96.30;;;;;;4991197;28;20432;-76
2022/04/09 16:09:29;;;;;;;1.47;0.90;;;3.00;96.30;;;;;;4975159;28;20184;-77
2022/04/09 16:11:55;;;;;;;3.33;1.23;;;2.80;96.30;;;;;;4978380;28;20469;-77
2022/04/09 16:14:21;;;;;;;3.10;1.40;;;3.00;96.30;;;;;;4975164;28;20428;-79
2022/04/09 16:16:47;;;;;;;2.17;1.10;;;3.30;96.30;;;;;;4993976;28;20421;-79
2022/04/09 16:19:12;;;;;;;2.23;1.07;;;3.80;96.30;;;;;;4975534;28;20622;-78
2022/04/09 16:21:38;;;;;;;1.80;1.00;;;3.90;96.30;;;;;;4993790;28;20232;-78
2022/04/09 16:24:03;;;;;;;1.50;1.20;;;4.00;96.30;;;;;;4993398;28;20320;-74
2022/04/09 16:26:29;;;;;;;1.87;1.00;;;4.00;96.30;;;;;;4994575;28;20220;-79
2022/04/09 16:28:54;;;;;;;1.83;1.00;;;3.90;96.30;;;;;;4993449;28;20231;-74
2022/04/09 16:31:21;;;;;;;1.17;0.87;;;3.80;96.30;;;;;;4994248;28;20198;-75
2022/04/09 16:33:47;;;;;;;1.70;0.83;;;3.50;96.30;;;;;;4975692;28;20268;-71
2022/04/09 16:36:12;;;;;;;0.90;0.70;;;3.40;96.30;;;;;;4989091;28;20430;-72
2022/04/09 16:38:38;;;;;;;1.43;0.70;;;3.40;96.30;;;;;;4973220;28;20228;-73
2022/04/09 16:41:04;;;;;;;4.20;0.80;;;3.30;96.30;;;;;;4974162;28;20663;-74
2022/04/09 16:43:30;;;;;;;2.03;0.73;;;3.20;96.30;;;;;;4974351;28;20178;-75
2022/04/09 16:45:55;;;;;;;2.80;0.80;;;3.10;96.30;;;;;;4974188;28;20493;-76
2022/04/09 16:48:21;;;;;;;1.93;0.70;;;3.00;96.30;;;;;;4973912;28;20273;-76
2022/04/09 16:50:46;;;;;;;3.10;1.00;;;2.90;96.30;;;;;;4974451;28;20613;-75
2022/04/09 16:53:12;;;;;;;1.20;0.70;;;2.80;96.30;;;;;;4974233;28;20189;-75
2022/04/09 16:55:38;;;;;;;1.30;0.70;;;2.80;96.30;;;;;;4974929;28;20183;-79
2022/04/09 16:58:04;;;;;;;1.23;0.70;;;2.80;96.30;;;;;;4984879;28;20213;-78
2022/04/09 17:00:32;;;;;;;1.97;0.90;;;2.80;96.30;;;;;;4994954;28;20236;-79
2022/04/09 17:03:00;;;;;;;2.37;1.00;;;2.80;96.30;;;;;;4977488;28;20921;-80
2022/04/09 17:05:28;;;;;;;1.80;0.97;;;2.90;96.30;;;;;;4969790;28;20881;-79
2022/04/09 17:07:54;;;;;;;1.63;1.07;;;3.00;96.30;;;;;;4993952;28;20421;-77
2022/04/09 17:10:20;;;;;;;2.03;1.10;;;3.00;96.30;;;;;;5016775;28;20492;-76
2022/04/09 17:12:46;;;;;;;4.37;1.13;;;3.10;96.30;;;;;;5013843;28;20505;-74
2022/04/09 17:15:11;;;;;;;2.83;1.10;;;3.00;96.30;;;;;;5014349;28;20441;-73
2022/04/09 17:17:37;;;;;;;5.07;1.10;;;3.00;96.30;;;;;;4961054;28;20607;-77
2022/04/09 17:20:04;;;;;;;2.53;0.70;;;2.90;96.30;;;;;;4974925;28;20236;-78
2022/04/09 17:22:29;;;;;;;1.20;1.00;;;2.80;96.30;;;;;;4992050;28;20213;-79
2022/04/09 17:24:55;;;;;;;1.10;0.70;;;2.70;96.30;;;;;;4996269;28;20444;-78
2022/04/09 17:27:20;;;;;;;5.53;1.10;;;2.70;96.30;;;;;;4986107;28;20646;-77
2022/04/09 17:29:46;;;;;;;2.63;1.00;;;2.60;96.30;;;;;;4981488;28;20252;-80
2022/04/09 17:32:12;;;;;;;0.80;0.60;;;2.60;96.30;;;;;;4982146;28;20193;-77
2022/04/09 17:34:38;;;;;;;2.00;1.17;;;2.60;96.30;;;;;;4976834;28;20181;-78